Time;durP1;ratioP1;P1;durP2;ratioP2;P2;SDS_P1;SDS_P2;PMS_P1;PMS_P2;Temp;Humidity;BMP_temperature;BMP_pressure;BME280_temperature;BME280_humidity;BME280_pressure;Samples;Min_cycle;Max_cycle;Signal;HPM_P1;HPM_P2
2023/12/11 00:00:51;;;;;;;;;;;;;;;20.22;44.89;99377.19;2066915;28;6053;-67
2023/12/11 00:01:52;;;;;;;;;;;;;;;20.21;44.86;99376.47;2069646;28;2071;-67
2023/12/11 00:02:54;;;;;;;;;;;;;;;20.21;44.80;99364.25;2069601;28;1949;-67
2023/12/11 00:03:56;;;;;;;;;;;;;;;20.21;44.92;99370.00;2068869;28;2038;-67
2023/12/11 00:04:57;;;;;;;;;;;;;;;20.21;44.88;99375.75;2070003;28;1997;-67
2023/12/11 00:05:58;;;;;;;;;;;;;;;20.19;44.76;99367.78;2068941;28;1918;-67
2023/12/11 00:07:00;;;;;;;;;;;;;;;20.20;44.84;99357.03;2069645;28;2009;-66
2023/12/11 00:08:01;;;;;;;;;;;;;;;20.20;44.84;99357.03;2067215;28;1612;-67
2023/12/11 00:09:03;;;;;;;;;;;;;;;20.19;44.91;99344.09;2068013;28;1978;-67
2023/12/11 00:10:05;;;;;;;;;;;;;;;20.19;44.91;99355.56;2069730;28;1626;-67
2023/12/11 00:11:08;;;;;;;;;;;;;;;20.19;44.79;99344.09;2066210;28;1528;-67
2023/12/11 00:12:10;;;;;;;;;;;;;;;20.18;44.86;99349.09;2069124;28;1911;-68
2023/12/11 00:13:11;;;;;;;;;;;;;;;20.18;44.71;99336.84;2070084;28;2262;-67
2023/12/11 00:14:13;;;;;;;;;;;;;;;20.18;44.91;99336.84;2070878;28;1993;-67
2023/12/11 00:15:14;;;;;;;;;;;;;;;20.17;44.90;99338.28;2068025;28;2035;-67
2023/12/11 00:16:16;;;;;;;;;;;;;;;20.17;44.83;99335.41;2066569;28;2264;-68
2023/12/11 00:17:18;;;;;;;;;;;;;;;20.17;44.88;99332.53;2066353;28;1902;-67
2023/12/11 00:18:19;;;;;;;;;;;;;;;20.17;44.84;99335.41;2065869;28;2108;-67
2023/12/11 00:19:21;;;;;;;;;;;;;;;20.17;44.96;99329.66;2068466;28;1973;-67
2023/12/11 00:20:22;;;;;;;;;;;;;;;20.17;44.96;99323.91;2067871;28;1977;-67
2023/12/11 00:21:24;;;;;;;;;;;;;;;20.17;44.83;99318.16;2068303;28;2105;-67
2023/12/11 00:22:25;;;;;;;;;;;;;;;20.16;44.89;99320.31;2067957;28;2104;-67
2023/12/11 00:23:26;;;;;;;;;;;;;;;20.17;45.07;99318.16;2068092;28;1942;-67
2023/12/11 00:24:28;;;;;;;;;;;;;;;20.16;44.90;99319.56;2068437;28;1993;-65
2023/12/11 00:25:31;;;;;;;;;;;;;;;20.16;44.76;99316.69;2069782;28;2136;-67
2023/12/11 00:26:32;;;;;;;;;;;;;;;20.15;44.93;99310.22;2069382;28;1933;-67
2023/12/11 00:27:33;;;;;;;;;;;;;;;20.15;44.84;99306.63;2068056;28;2024;-67
2023/12/11 00:28:35;;;;;;;;;;;;;;;20.15;44.76;99310.22;2070437;28;2307;-67
2023/12/11 00:29:36;;;;;;;;;;;;;;;20.15;44.96;99309.50;2068942;28;2097;-68
2023/12/11 00:30:38;;;;;;;;;;;;;;;20.14;44.99;99300.16;2070932;28;6264;-67
2023/12/11 00:31:39;;;;;;;;;;;;;;;20.15;44.89;99300.88;2068649;28;1966;-67
2023/12/11 00:32:41;;;;;;;;;;;;;;;20.15;44.73;99292.25;2067302;28;1933;-67
2023/12/11 00:33:42;;;;;;;;;;;;;;;20.14;44.86;99296.56;2070259;28;2328;-67
2023/12/11 00:34:44;;;;;;;;;;;;;;;20.13;44.84;99281.44;2069837;28;2145;-67
2023/12/11 00:35:46;;;;;;;;;;;;;;;20.14;44.85;99285.78;2068953;28;2283;-67
2023/12/11 00:36:47;;;;;;;;;;;;;;;20.14;44.87;99273.56;2066786;28;1949;-67
2023/12/11 00:37:49;;;;;;;;;;;;;;;20.14;44.89;99279.31;2069267;28;1710;-67
2023/12/11 00:38:50;;;;;;;;;;;;;;;20.14;44.89;99273.56;2067765;28;1903;-67
2023/12/11 00:39:52;;;;;;;;;;;;;;;20.13;44.81;99266.34;2068520;28;1500;-67
2023/12/11 00:40:53;;;;;;;;;;;;;;;20.14;44.86;99262.06;2070105;28;1997;-67
2023/12/11 00:41:54;;;;;;;;;;;;;;;20.14;44.87;99250.59;2068694;28;1936;-67
2023/12/11 00:42:56;;;;;;;;;;;;;;;20.12;44.77;99254.13;2071662;28;2300;-66
2023/12/11 00:43:57;;;;;;;;;;;;;;;20.13;44.81;99255.56;2069084;28;2017;-67
2023/12/11 00:44:59;;;;;;;;;;;;;;;20.15;44.81;99252.03;2068095;28;1961;-67
2023/12/11 00:46:00;;;;;;;;;;;;;;;20.15;44.71;99240.53;2069267;28;1536;-67
2023/12/11 00:47:04;;;;;;;;;;;;;;;20.15;44.62;99246.28;2070211;28;1806;-67
2023/12/11 00:48:05;;;;;;;;;;;;;;;20.14;44.64;99239.81;2068739;28;1845;-67
2023/12/11 00:49:07;;;;;;;;;;;;;;;20.16;44.85;99239.09;2072342;28;1807;-68
2023/12/11 00:50:08;;;;;;;;;;;;;;;20.16;44.62;99233.34;2071993;28;1783;-66
2023/12/11 00:51:16;;;;;;;;;;;;;;;20.16;44.60;99224.72;2069453;28;2081;-67
2023/12/11 00:52:17;;;;;;;;;;;;;;;20.16;44.54;99224.72;2068845;28;1978;-68
2023/12/11 00:53:19;;;;;;;;;;;;;;;20.17;44.54;99226.22;2072195;28;1810;-67
2023/12/11 00:54:20;;;;;;;;;;;;;;;20.17;44.55;99214.72;2068651;28;1958;-67
2023/12/11 00:55:21;;;;;;;;;;;;;;;20.19;44.55;99217.63;2069946;28;1978;-68
2023/12/11 00:56:23;;;;;;;;;;;;;;;20.19;44.51;99211.88;2069140;28;1906;-68
2023/12/11 00:57:24;;;;;;;;;;;;;;;20.19;44.42;99211.88;2071742;28;2032;-67
2023/12/11 00:58:26;;;;;;;;;;;;;;;20.21;44.56;99209.06;2069603;28;2033;-67
2023/12/11 00:59:27;;;;;;;;;;;;;;;20.20;44.60;99204.72;2069687;28;1984;-67
2023/12/11 01:00:29;;;;;;;;;;;;;;;20.20;44.50;99204.72;2070105;28;6091;-67
2023/12/11 01:01:30;;;;;;;;;;;;;;;20.21;44.45;99197.56;2071223;28;1954;-67
2023/12/11 01:02:32;;;;;;;;;;;;;;;20.20;44.71;99191.09;2070602;28;2058;-67
2023/12/11 01:03:33;;;;;;;;;;;;;;;20.21;44.64;99195.41;2071527;28;1968;-66
2023/12/11 01:04:35;;;;;;;;;;;;;;;20.21;44.58;99197.56;2070310;28;1938;-67
2023/12/11 01:05:36;;;;;;;;;;;;;;;20.21;44.64;99191.81;2070413;28;1993;-67
2023/12/11 01:06:38;;;;;;;;;;;;;;;20.21;44.68;99192.53;2069361;28;1866;-67
2023/12/11 01:07:39;;;;;;;;;;;;;;;20.20;44.62;99188.22;2071030;28;2038;-66
2023/12/11 01:08:41;;;;;;;;;;;;;;;20.21;44.54;99180.31;2065910;28;1928;-67
2023/12/11 01:09:42;;;;;;;;;;;;;;;20.21;44.68;99186.06;2071674;28;1528;-67
2023/12/11 01:10:43;;;;;;;;;;;;;;;20.21;44.65;99186.78;2067823;28;1811;-67
2023/12/11 01:11:45;;;;;;;;;;;;;;;20.21;44.70;99186.78;2070208;28;1962;-66
2023/12/11 01:12:46;;;;;;;;;;;;;;;20.21;44.70;99186.78;2066812;28;1991;-67
2023/12/11 01:13:48;;;;;;;;;;;;;;;20.21;44.53;99174.56;2069494;28;1862;-67
2023/12/11 01:14:49;;;;;;;;;;;;;;;20.20;44.56;99176.72;2068129;28;1957;-67
2023/12/11 01:15:51;;;;;;;;;;;;;;;20.19;44.66;99172.38;2068323;28;1587;-67
2023/12/11 01:16:52;;;;;;;;;;;;;;;20.20;44.75;99170.22;2067562;28;2059;-67
2023/12/11 01:17:53;;;;;;;;;;;;;;;20.20;44.64;99167.34;2069698;28;1991;-67
2023/12/11 01:18:55;;;;;;;;;;;;;;;20.20;44.78;99173.09;2068788;28;2009;-67
2023/12/11 01:19:57;;;;;;;;;;;;;;;20.19;44.74;99172.38;2071480;28;2077;-67
2023/12/11 01:20:59;;;;;;;;;;;;;;;20.20;44.61;99167.34;2070910;28;1564;-67
2023/12/11 01:22:01;;;;;;;;;;;;;;;20.19;44.77;99171.66;2070077;28;2002;-68
2023/12/11 01:23:02;;;;;;;;;;;;;;;20.19;44.54;99166.63;2072048;28;1886;-67
2023/12/11 01:24:03;;;;;;;;;;;;;;;20.19;44.72;99165.91;2068715;28;2150;-67
2023/12/11 01:25:05;;;;;;;;;;;;;;;20.20;44.78;99167.34;2070717;28;2076;-67
2023/12/11 01:26:07;;;;;;;;;;;;;;;20.19;44.75;99160.88;2070815;28;1611;-67
2023/12/11 01:27:08;;;;;;;;;;;;;;;20.19;44.63;99148.66;2069543;28;1963;-67
2023/12/11 01:28:10;;;;;;;;;;;;;;;20.18;44.62;99155.81;2070061;28;1993;-67
2023/12/11 01:29:11;;;;;;;;;;;;;;;20.18;44.55;99156.56;2070818;28;1957;-67
2023/12/11 01:30:13;;;;;;;;;;;;;;;20.18;44.69;99147.19;2069080;28;6178;-67
2023/12/11 01:31:14;;;;;;;;;;;;;;;20.18;44.69;99144.31;2069660;28;1595;-67
2023/12/11 01:32:16;;;;;;;;;;;;;;;20.18;44.66;99147.19;2067267;28;1995;-67
2023/12/11 01:33:17;;;;;;;;;;;;;;;20.18;44.68;99144.31;2070893;28;1997;-68
2023/12/11 01:34:19;;;;;;;;;;;;;;;20.18;44.70;99135.69;2071221;28;2032;-67
2023/12/11 01:35:20;;;;;;;;;;;;;;;20.18;44.73;99144.31;2071092;28;1630;-67
2023/12/11 01:36:22;;;;;;;;;;;;;;;20.18;44.67;99147.19;2069920;28;2130;-67
2023/12/11 01:37:23;;;;;;;;;;;;;;;20.17;44.65;99134.25;2072033;28;1946;-66
2023/12/11 01:38:24;;;;;;;;;;;;;;;20.18;44.72;99121.34;2069185;28;1786;-68
2023/12/11 01:39:26;;;;;;;;;;;;;;;20.18;44.69;99135.69;2070330;28;1977;-67
2023/12/11 01:40:27;;;;;;;;;;;;;;;20.17;44.72;99128.50;2071767;28;1881;-67
2023/12/11 01:41:28;;;;;;;;;;;;;;;20.17;44.64;99122.75;2068213;28;1624;-67
2023/12/11 01:42:32;;;;;;;;;;;;;;;20.16;44.65;99119.16;2068200;28;2150;-67
2023/12/11 01:43:33;;;;;;;;;;;;;;;20.16;44.70;99127.78;2068195;28;1861;-67
2023/12/11 01:44:36;;;;;;;;;;;;;;;20.16;44.69;99121.28;2070110;28;2222;-67
2023/12/11 01:45:37;;;;;;;;;;;;;;;20.15;44.57;99120.56;2069504;28;2080;-67
2023/12/11 01:46:38;;;;;;;;;;;;;;;20.17;44.68;99119.88;2071663;28;1961;-67
2023/12/11 01:47:40;;;;;;;;;;;;;;;20.16;44.67;99116.28;2069693;28;1935;-67
2023/12/11 01:48:42;;;;;;;;;;;;;;;20.16;44.65;99127.78;2060751;28;2138;-67
2023/12/11 01:49:44;;;;;;;;;;;;;;;20.15;44.69;99128.47;2069875;28;2029;-67
2023/12/11 01:50:45;;;;;;;;;;;;;;;20.14;44.62;99130.63;2070772;28;1992;-68
2023/12/11 01:51:47;;;;;;;;;;;;;;;20.15;44.76;99125.59;2067668;28;1991;-67
2023/12/11 01:52:48;;;;;;;;;;;;;;;20.14;44.68;99130.63;2070749;28;1974;-68
2023/12/11 01:53:50;;;;;;;;;;;;;;;20.14;44.81;99115.53;2068437;28;2026;-68
2023/12/11 01:54:51;;;;;;;;;;;;;;;20.14;44.62;99124.16;2068785;28;2048;-67
2023/12/11 01:55:53;;;;;;;;;;;;;;;20.13;44.67;99122.66;2068373;28;1977;-67
2023/12/11 01:56:54;;;;;;;;;;;;;;;20.12;44.73;99116.22;2070317;28;1691;-67
2023/12/11 01:57:55;;;;;;;;;;;;;;;20.13;44.56;99116.94;2068683;28;2077;-67
2023/12/11 01:58:57;;;;;;;;;;;;;;;20.13;44.67;99120.53;2061988;28;1819;-67
2023/12/11 01:59:58;;;;;;;;;;;;;;;20.12;44.80;99119.06;2069347;28;2013;-67
2023/12/11 02:01:00;;;;;;;;;;;;;;;20.12;44.65;99109.75;2072881;28;6115;-67
2023/12/11 02:02:02;;;;;;;;;;;;;;;20.13;44.73;99111.19;2067155;28;1971;-67
2023/12/11 02:03:04;;;;;;;;;;;;;;;20.12;44.77;99112.59;2070748;28;1785;-67
2023/12/11 02:04:07;;;;;;;;;;;;;;;20.11;44.86;99111.84;2067383;28;2013;-67
2023/12/11 02:05:09;;;;;;;;;;;;;;;20.11;44.75;99108.25;2070804;28;1910;-67
2023/12/11 02:06:10;;;;;;;;;;;;;;;20.11;44.85;99097.50;2070209;28;2005;-67
2023/12/11 02:07:12;;;;;;;;;;;;;;;20.11;44.80;99097.50;2067967;28;1963;-67
2023/12/11 02:08:14;;;;;;;;;;;;;;;20.11;44.87;99103.25;2071118;28;1981;-67
2023/12/11 02:09:15;;;;;;;;;;;;;;;20.10;44.71;99096.06;2069379;28;2112;-67
2023/12/11 02:10:17;;;;;;;;;;;;;;;20.10;44.71;99090.31;2069495;28;1537;-67
2023/12/11 02:11:18;;;;;;;;;;;;;;;20.09;44.85;99092.44;2070617;28;2009;-67
2023/12/11 02:12:19;;;;;;;;;;;;;;;20.11;44.78;99096.78;2069561;28;1977;-67
2023/12/11 02:13:21;;;;;;;;;;;;;;;20.11;44.81;99085.28;2068226;28;2009;-67
2023/12/11 02:14:22;;;;;;;;;;;;;;;20.09;44.87;99088.84;2070865;28;1575;-67
2023/12/11 02:15:42;;;;;;;;;;;;;;;20.09;44.82;99094.59;2071583;28;2049;-67
2023/12/11 02:16:44;;;;;;;;;;;;;;;20.09;44.64;99089.59;2070151;28;1863;-67
2023/12/11 02:17:45;;;;;;;;;;;;;;;20.09;44.85;99095.31;2071431;28;1981;-67
2023/12/11 02:18:47;;;;;;;;;;;;;;;20.09;44.80;99088.84;2069852;28;2027;-67
2023/12/11 02:19:48;;;;;;;;;;;;;;;20.08;44.73;99088.09;2068356;28;1959;-67
2023/12/11 02:20:50;;;;;;;;;;;;;;;20.08;44.66;99075.91;2071840;28;1954;-67
2023/12/11 02:21:51;;;;;;;;;;;;;;;20.07;44.76;99086.66;2071480;28;1922;-67
2023/12/11 02:22:53;;;;;;;;;;;;;;;20.08;44.83;99088.09;2070571;28;2342;-66
2023/12/11 02:24:10;;;;;;;;;;;;;;;20.08;44.76;99084.50;2069882;28;2006;-68
2023/12/11 02:25:11;;;;;;;;;;;;;;;20.07;44.83;99086.66;2070243;28;1906;-67
2023/12/11 02:26:16;;;;;;;;;;;;;;;20.07;44.77;99078.03;2069951;28;2081;-67
2023/12/11 02:27:18;;;;;;;;;;;;;;;20.06;44.63;99085.19;2067256;28;2137;-66
2023/12/11 02:28:19;;;;;;;;;;;;;;;20.06;44.77;99082.31;2068799;28;2256;-67
2023/12/11 02:29:21;;;;;;;;;;;;;;;20.06;44.71;99076.56;2067669;28;1958;-67
2023/12/11 02:30:22;;;;;;;;;;;;;;;20.07;44.73;99074.44;2065784;28;6095;-67
2023/12/11 02:31:23;;;;;;;;;;;;;;;20.06;44.67;99072.97;2068763;28;1985;-67
2023/12/11 02:32:25;;;;;;;;;;;;;;;20.06;44.69;99079.44;2071752;28;2020;-67
2023/12/11 02:33:26;;;;;;;;;;;;;;;20.06;44.66;99072.97;2072434;28;1810;-67
2023/12/11 02:34:28;;;;;;;;;;;;;;;20.06;44.79;99075.84;2069177;28;1648;-67
2023/12/11 02:35:29;;;;;;;;;;;;;;;20.05;44.77;99078.00;2071769;28;1892;-67
2023/12/11 02:36:31;;;;;;;;;;;;;;;20.05;44.68;99078.00;2067774;28;1954;-67
2023/12/11 02:37:32;;;;;;;;;;;;;;;20.05;44.79;99078.00;2067334;28;1970;-67
2023/12/11 02:38:34;;;;;;;;;;;;;;;20.06;44.72;99078.72;2071132;28;1938;-67
2023/12/11 02:39:35;;;;;;;;;;;;;;;20.05;44.85;99072.25;2067675;28;1964;-67
2023/12/11 02:40:37;;;;;;;;;;;;;;;20.05;44.66;99072.25;2069113;28;2248;-67
2023/12/11 02:41:38;;;;;;;;;;;;;;;20.05;44.80;99071.53;2071788;28;1620;-67
2023/12/11 02:42:45;;;;;;;;;;;;;;;20.04;44.68;99065.06;2068693;28;1981;-67
2023/12/11 02:43:46;;;;;;;;;;;;;;;20.04;44.72;99070.06;2070654;28;1984;-67
2023/12/11 02:44:48;;;;;;;;;;;;;;;20.04;44.79;99067.94;2068263;28;1985;-67
2023/12/11 02:45:49;;;;;;;;;;;;;;;20.04;44.81;99067.94;2070767;28;2055;-67
2023/12/11 02:46:50;;;;;;;;;;;;;;;20.03;44.68;99063.59;2071346;28;1612;-67
2023/12/11 02:47:56;;;;;;;;;;;;;;;20.04;44.72;99075.81;2070087;28;1639;-67
2023/12/11 02:48:58;;;;;;;;;;;;;;;20.03;44.77;99069.34;2069349;28;2160;-68
2023/12/11 02:50:00;;;;;;;;;;;;;;;20.03;44.81;99075.09;2069396;28;1938;-67
2023/12/11 02:51:01;;;;;;;;;;;;;;;20.03;44.74;99074.38;2067552;28;2060;-67
2023/12/11 02:52:03;;;;;;;;;;;;;;;20.03;44.60;99071.50;2068692;28;1818;-67
2023/12/11 02:53:04;;;;;;;;;;;;;;;20.02;44.84;99062.16;2068609;28;1551;-67
2023/12/11 02:54:05;;;;;;;;;;;;;;;20.02;44.70;99062.16;2066478;28;2059;-68
2023/12/11 02:55:07;;;;;;;;;;;;;;;20.01;44.90;99052.06;2066044;28;1946;-67
2023/12/11 02:56:08;;;;;;;;;;;;;;;20.01;44.74;99054.22;2069590;28;2013;-66
2023/12/11 02:57:10;;;;;;;;;;;;;;;20.01;44.78;99057.09;2070759;28;1974;-67
2023/12/11 02:58:11;;;;;;;;;;;;;;;20.01;44.67;99060.69;2069388;28;1989;-67
2023/12/11 02:59:13;;;;;;;;;;;;;;;20.01;44.78;99057.81;2070289;28;1973;-67
2023/12/11 03:00:15;;;;;;;;;;;;;;;20.01;44.91;99059.97;2068798;28;6276;-66
2023/12/11 03:01:16;;;;;;;;;;;;;;;20.01;44.71;99069.31;2069808;28;1938;-67
2023/12/11 03:02:18;;;;;;;;;;;;;;;20.00;44.68;99059.25;2068490;28;2021;-67
2023/12/11 03:03:19;;;;;;;;;;;;;;;20.01;44.82;99069.31;2066762;28;1969;-67
2023/12/11 03:04:20;;;;;;;;;;;;;;;20.00;44.73;99065.00;2069582;28;1985;-67
2023/12/11 03:05:22;;;;;;;;;;;;;;;19.99;44.84;99062.78;2069728;28;1972;-67
2023/12/11 03:06:23;;;;;;;;;;;;;;;19.98;44.81;99062.06;2069772;28;2034;-67
2023/12/11 03:07:25;;;;;;;;;;;;;;;19.99;44.81;99063.50;2068744;28;1935;-67
2023/12/11 03:08:26;;;;;;;;;;;;;;;19.99;44.82;99066.38;2069621;28;1942;-67
2023/12/11 03:09:28;;;;;;;;;;;;;;;19.99;44.81;99066.38;2067609;28;1978;-67
2023/12/11 03:10:29;;;;;;;;;;;;;;;19.99;44.83;99075.00;2070737;28;1898;-67
2023/12/11 03:11:30;;;;;;;;;;;;;;;19.99;44.80;99074.28;2070537;28;1994;-67
2023/12/11 03:12:32;;;;;;;;;;;;;;;19.99;44.71;99077.88;2069968;28;1902;-67
2023/12/11 03:13:33;;;;;;;;;;;;;;;19.99;44.80;99068.53;2069382;28;1939;-67
2023/12/11 03:14:35;;;;;;;;;;;;;;;19.98;44.79;99067.81;2068328;28;1915;-67
2023/12/11 03:15:36;;;;;;;;;;;;;;;19.98;44.83;99067.81;2069758;28;2277;-67
2023/12/11 03:16:37;;;;;;;;;;;;;;;19.99;44.80;99068.53;2069952;28;1949;-67
2023/12/11 03:17:39;;;;;;;;;;;;;;;19.99;44.76;99068.53;2070383;28;1572;-67
2023/12/11 03:18:41;;;;;;;;;;;;;;;19.97;44.73;99069.22;2067499;28;1934;-67
2023/12/11 03:19:43;;;;;;;;;;;;;;;19.97;44.70;99072.09;2071962;28;1550;-67
2023/12/11 03:20:44;;;;;;;;;;;;;;;19.98;44.68;99073.56;2070293;28;1984;-67
2023/12/11 03:21:46;;;;;;;;;;;;;;;19.98;44.77;99078.59;2069147;28;1955;-67
2023/12/11 03:22:47;;;;;;;;;;;;;;;19.99;44.79;99074.28;2069899;28;1619;-67
2023/12/11 03:23:49;;;;;;;;;;;;;;;19.98;44.74;99078.59;2068399;28;1938;-67
2023/12/11 03:24:50;;;;;;;;;;;;;;;19.97;44.72;99080.72;2067152;28;1806;-67
2023/12/11 03:25:52;;;;;;;;;;;;;;;19.97;44.67;99072.09;2067743;28;1975;-68
2023/12/11 03:26:53;;;;;;;;;;;;;;;19.97;44.73;99077.84;2069152;28;1846;-69
2023/12/11 03:27:55;;;;;;;;;;;;;;;19.97;44.76;99082.84;2066965;28;1907;-68
2023/12/11 03:28:56;;;;;;;;;;;;;;;19.96;44.73;99082.13;2070364;28;2010;-67
2023/12/11 03:29:57;;;;;;;;;;;;;;;19.97;44.73;99082.84;2069268;28;2096;-67
2023/12/11 03:30:59;;;;;;;;;;;;;;;19.97;44.69;99088.59;2068424;28;5955;-67
2023/12/11 03:32:00;;;;;;;;;;;;;;;19.95;44.78;99089.31;2068009;28;1991;-67
2023/12/11 03:33:02;;;;;;;;;;;;;;;19.96;44.66;99084.28;2067602;28;1850;-67
2023/12/11 03:34:03;;;;;;;;;;;;;;;19.96;44.76;99087.16;2068118;28;1955;-67
2023/12/11 03:35:05;;;;;;;;;;;;;;;19.95;44.74;99092.19;2068327;28;1976;-67
2023/12/11 03:36:06;;;;;;;;;;;;;;;19.95;44.74;99091.44;2067407;28;2019;-67
2023/12/11 03:37:09;;;;;;;;;;;;;;;19.95;44.76;99097.19;2069930;28;1929;-67
2023/12/11 03:38:10;;;;;;;;;;;;;;;19.95;44.84;99091.44;2069148;28;1611;-67
2023/12/11 03:39:12;;;;;;;;;;;;;;;19.95;44.77;99092.19;2069267;28;1679;-66
2023/12/11 03:40:13;;;;;;;;;;;;;;;19.94;44.76;99096.47;2070912;28;2087;-67
2023/12/11 03:41:15;;;;;;;;;;;;;;;19.94;44.80;99096.47;2070238;28;1953;-67
2023/12/11 03:42:16;;;;;;;;;;;;;;;19.93;44.81;99100.75;2071084;28;2203;-67
2023/12/11 03:43:18;;;;;;;;;;;;;;;19.94;44.66;99102.19;2067345;28;1967;-67
2023/12/11 03:44:19;;;;;;;;;;;;;;;19.94;44.71;99102.19;2070836;28;2009;-67
2023/12/11 03:45:20;;;;;;;;;;;;;;;19.95;44.77;99115.16;2068347;28;1931;-67
2023/12/11 03:46:22;;;;;;;;;;;;;;;19.94;44.72;99112.97;2067271;28;1852;-67
2023/12/11 03:47:23;;;;;;;;;;;;;;;19.93;44.76;99109.38;2069136;28;2134;-67
2023/12/11 03:48:25;;;;;;;;;;;;;;;19.95;44.77;99115.16;2070939;28;1997;-67
2023/12/11 03:49:27;;;;;;;;;;;;;;;19.95;44.74;99115.16;2070255;28;2005;-67
2023/12/11 03:50:28;;;;;;;;;;;;;;;19.95;44.72;99115.16;2069817;28;1725;-67
2023/12/11 03:51:30;;;;;;;;;;;;;;;19.97;44.73;99118.06;2067214;28;1926;-67
2023/12/11 03:52:31;;;;;;;;;;;;;;;19.97;44.67;99123.78;2069154;28;1934;-67
2023/12/11 03:53:33;;;;;;;;;;;;;;;19.98;44.59;99113.06;2070393;28;1913;-67
2023/12/11 03:54:34;;;;;;;;;;;;;;;19.98;44.63;99108.03;2068119;28;1961;-67
2023/12/11 03:55:35;;;;;;;;;;;;;;;19.98;44.60;99108.03;2067137;28;1974;-67
2023/12/11 03:56:38;;;;;;;;;;;;;;;19.99;44.42;99112.34;2069412;28;2017;-67
2023/12/11 03:57:39;;;;;;;;;;;;;;;20.00;44.54;99116.69;2069605;28;2022;-67
2023/12/11 03:58:41;;;;;;;;;;;;;;;20.00;44.56;99116.69;2067666;28;1989;-67
2023/12/11 03:59:42;;;;;;;;;;;;;;;20.01;44.47;99121.00;2069781;28;1869;-67
2023/12/11 04:00:44;;;;;;;;;;;;;;;20.01;44.44;99123.88;2069364;28;6103;-67
2023/12/11 04:01:46;;;;;;;;;;;;;;;20.03;44.45;99120.34;2067389;28;1910;-67
2023/12/11 04:02:47;;;;;;;;;;;;;;;20.03;44.44;99132.56;2070596;28;2111;-67
2023/12/11 04:03:49;;;;;;;;;;;;;;;20.05;44.53;99123.25;2070901;28;1963;-67
2023/12/11 04:04:50;;;;;;;;;;;;;;;20.04;44.51;99134.03;2066956;28;2115;-67
2023/12/11 04:05:52;;;;;;;;;;;;;;;20.04;44.62;99133.28;2069225;28;1961;-67
2023/12/11 04:06:53;;;;;;;;;;;;;;;20.05;44.46;99135.47;2067716;28;2060;-67
2023/12/11 04:07:55;;;;;;;;;;;;;;;20.05;44.58;99141.22;2069289;28;2015;-67
2023/12/11 04:08:56;;;;;;;;;;;;;;;20.04;44.62;99142.63;2068673;28;1977;-67
2023/12/11 04:09:58;;;;;;;;;;;;;;;20.04;44.66;99139.75;2067675;28;2100;-67
2023/12/11 04:10:59;;;;;;;;;;;;;;;20.04;44.72;99139.75;2068426;28;1934;-67
2023/12/11 04:12:01;;;;;;;;;;;;;;;20.05;44.62;99152.69;2067394;28;1947;-67
2023/12/11 04:13:02;;;;;;;;;;;;;;;20.05;44.67;99146.97;2070966;28;1553;-67
2023/12/11 04:14:04;;;;;;;;;;;;;;;20.04;44.78;99151.25;2069659;28;1631;-68
2023/12/11 04:15:05;;;;;;;;;;;;;;;20.04;44.56;99145.50;2069577;28;2045;-67
2023/12/11 04:16:07;;;;;;;;;;;;;;;20.05;44.60;99135.47;2069910;28;2300;-67
2023/12/11 04:17:08;;;;;;;;;;;;;;;20.05;44.64;99146.97;2070549;28;1508;-67
2023/12/11 04:18:10;;;;;;;;;;;;;;;20.04;44.61;99151.25;2068432;28;1684;-67
2023/12/11 04:19:11;;;;;;;;;;;;;;;20.06;44.73;99147.69;2068422;28;1930;-67
2023/12/11 04:20:13;;;;;;;;;;;;;;;20.06;44.68;99151.28;2070493;28;1987;-67
2023/12/11 04:21:15;;;;;;;;;;;;;;;20.06;44.63;99150.56;2070738;28;1977;-67
2023/12/11 04:22:16;;;;;;;;;;;;;;;20.06;44.76;99145.53;2070506;28;1752;-67
2023/12/11 04:23:18;;;;;;;;;;;;;;;20.05;44.69;99146.97;2071934;28;1679;-67
2023/12/11 04:24:19;;;;;;;;;;;;;;;20.07;44.65;99143.41;2067853;28;1576;-67
2023/12/11 04:25:20;;;;;;;;;;;;;;;20.07;44.71;99152.75;2069914;28;1986;-67
2023/12/11 04:26:22;;;;;;;;;;;;;;;20.07;44.74;99152.03;2066901;28;1896;-67
2023/12/11 04:27:23;;;;;;;;;;;;;;;20.09;44.75;99157.81;2069867;28;1568;-67
2023/12/11 04:28:25;;;;;;;;;;;;;;;20.08;44.93;99151.31;2070714;28;1796;-67
2023/12/11 04:29:26;;;;;;;;;;;;;;;20.08;44.66;99154.19;2072344;28;1813;-67
2023/12/11 04:30:28;;;;;;;;;;;;;;;20.09;44.72;99158.53;2070298;28;6220;-67
2023/12/11 04:31:29;;;;;;;;;;;;;;;20.10;44.90;99153.50;2072410;28;2240;-67
2023/12/11 04:32:31;;;;;;;;;;;;;;;20.11;44.84;99162.84;2071483;28;2052;-67
2023/12/11 04:33:36;;;;;;;;;;;;;;;20.12;44.87;99161.47;2072023;28;1974;-67
2023/12/11 04:34:38;;;;;;;;;;;;;;;20.10;44.81;99162.13;2069843;28;1983;-67
2023/12/11 04:35:40;;;;;;;;;;;;;;;20.10;44.69;99159.25;2070042;28;1794;-67
2023/12/11 04:36:42;;;;;;;;;;;;;;;20.10;44.69;99156.38;2070053;28;1954;-67
2023/12/11 04:37:44;;;;;;;;;;;;;;;20.11;44.71;99157.09;2070765;28;1580;-67
2023/12/11 04:38:45;;;;;;;;;;;;;;;20.09;44.73;99152.78;2070556;28;1766;-67
2023/12/11 04:39:47;;;;;;;;;;;;;;;20.09;44.75;99164.28;2067789;28;1647;-67
2023/12/11 04:40:48;;;;;;;;;;;;;;;20.09;44.72;99166.44;2071802;28;1911;-67
2023/12/11 04:41:49;;;;;;;;;;;;;;;20.10;44.80;99167.88;2068855;28;1910;-67
2023/12/11 04:42:51;;;;;;;;;;;;;;;20.11;44.82;99165.72;2071676;28;2019;-67
2023/12/11 04:43:52;;;;;;;;;;;;;;;20.09;44.89;99164.28;2070891;28;1986;-67
2023/12/11 04:44:54;;;;;;;;;;;;;;;20.09;44.97;99163.56;2070487;28;1978;-67
2023/12/11 04:45:55;;;;;;;;;;;;;;;20.09;44.88;99164.28;2071436;28;2257;-67
2023/12/11 04:46:57;;;;;;;;;;;;;;;20.09;44.86;99157.81;2069857;28;2022;-67
2023/12/11 04:47:58;;;;;;;;;;;;;;;20.08;44.83;99157.06;2068339;28;1531;-67
2023/12/11 04:49:00;;;;;;;;;;;;;;;20.09;44.84;99163.56;2070405;28;2060;-67
2023/12/11 04:50:01;;;;;;;;;;;;;;;20.09;44.93;99169.31;2070652;28;2252;-67
2023/12/11 04:51:03;;;;;;;;;;;;;;;20.09;44.92;99170.03;2071179;28;2012;-67
2023/12/11 04:52:04;;;;;;;;;;;;;;;20.09;44.90;99164.28;2069899;28;1951;-67
2023/12/11 04:53:06;;;;;;;;;;;;;;;20.07;44.79;99167.13;2068447;28;2117;-67
2023/12/11 04:54:07;;;;;;;;;;;;;;;20.09;44.91;99169.31;2068781;28;2154;-67
2023/12/11 04:55:11;;;;;;;;;;;;;;;20.09;44.84;99164.28;2070885;28;1986;-67
2023/12/11 04:56:12;;;;;;;;;;;;;;;20.09;44.78;99170.03;2071678;28;1861;-67
2023/12/11 04:57:13;;;;;;;;;;;;;;;20.10;44.83;99167.88;2070606;28;1988;-67
2023/12/11 04:58:15;;;;;;;;;;;;;;;20.09;44.82;99164.28;2068254;28;1989;-67
2023/12/11 04:59:17;;;;;;;;;;;;;;;20.09;44.93;99175.78;2070901;28;2015;-67
2023/12/11 05:00:18;;;;;;;;;;;;;;;20.11;44.89;99171.47;2070748;28;6020;-67
2023/12/11 05:01:19;;;;;;;;;;;;;;;20.11;44.90;99182.97;2069306;28;2138;-67
2023/12/11 05:02:21;;;;;;;;;;;;;;;20.12;44.64;99179.41;2069264;28;2076;-67
2023/12/11 05:03:22;;;;;;;;;;;;;;;20.13;44.93;99180.13;2071932;28;1903;-67
2023/12/11 05:04:24;;;;;;;;;;;;;;;20.13;45.08;99174.41;2065768;28;1945;-67
2023/12/11 05:05:25;;;;;;;;;;;;;;;20.13;45.13;99175.13;2068248;28;1961;-67
2023/12/11 05:06:27;;;;;;;;;;;;;;;20.14;45.03;99175.88;2070711;28;2033;-67
2023/12/11 05:07:28;;;;;;;;;;;;;;;20.13;45.03;99168.66;2068655;28;1572;-67
2023/12/11 05:08:30;;;;;;;;;;;;;;;20.15;44.88;99177.31;2069935;28;1652;-67
2023/12/11 05:09:31;;;;;;;;;;;;;;;20.15;45.03;99183.06;2069657;28;1987;-67
2023/12/11 05:10:34;;;;;;;;;;;;;;;20.15;44.90;99188.81;2072289;28;1591;-67
2023/12/11 05:11:35;;;;;;;;;;;;;;;20.15;44.91;99188.81;2068833;28;1607;-67
2023/12/11 05:12:36;;;;;;;;;;;;;;;20.15;44.88;99188.81;2072286;28;1763;-67
2023/12/11 05:13:38;;;;;;;;;;;;;;;20.14;44.96;99185.22;2073039;28;1473;-67
2023/12/11 05:14:39;;;;;;;;;;;;;;;20.16;44.94;99184.50;2068900;28;1854;-67
2023/12/11 05:15:41;;;;;;;;;;;;;;;20.15;44.80;99191.69;2068549;28;1960;-67
2023/12/11 05:16:42;;;;;;;;;;;;;;;20.18;44.78;99184.53;2069672;28;1568;-67
2023/12/11 05:17:44;;;;;;;;;;;;;;;20.17;44.94;99183.09;2068877;28;1693;-67
2023/12/11 05:18:45;;;;;;;;;;;;;;;20.18;44.93;99190.28;2069451;28;1673;-67
2023/12/11 05:19:47;;;;;;;;;;;;;;;20.17;44.97;99188.84;2070230;28;2091;-67
2023/12/11 05:20:48;;;;;;;;;;;;;;;20.16;44.92;99187.38;2071101;28;1928;-67
2023/12/11 05:21:51;;;;;;;;;;;;;;;20.16;44.81;99184.50;2070152;28;2095;-67
2023/12/11 05:22:56;;;;;;;;;;;;;;;20.15;45.03;99195.28;2069728;28;2001;-67
2023/12/11 05:23:57;;;;;;;;;;;;;;;20.16;44.86;99184.50;2068867;28;1599;-67
2023/12/11 05:24:59;;;;;;;;;;;;;;;20.16;44.83;99187.38;2069877;28;2362;-67
2023/12/11 05:26:00;;;;;;;;;;;;;;;20.14;44.83;99188.09;2069197;28;1592;-67